Time;durP1;ratioP1;P1;durP2;ratioP2;P2;SDS_P1;SDS_P2;PMS_P1;PMS_P2;Temp;Humidity;BMP_temperature;BMP_pressure;BME280_temperature;BME280_humidity;BME280_pressure;Samples;Min_cycle;Max_cycle;Signal;HPM_P1;HPM_P2
2022/07/29 00:02:07;;;;;;;7.60;6.10;;;;;;;;;;5078485;28;20052;-85
2022/07/29 00:04:34;;;;;;;6.75;6.05;;;;;;;;;;5061137;28;20569;-84
2022/07/29 00:07:00;;;;;;;6.57;5.63;;;;;;;;;;5058339;28;20021;-84
2022/07/29 00:09:25;;;;;;;9.02;5.97;;;;;;;;;;5069170;28;20028;-84
2022/07/29 00:11:51;;;;;;;10.18;5.95;;;;;;;;;;5063563;28;20025;-84
2022/07/29 00:14:16;;;;;;;10.30;5.57;;;;;;;;;;5061991;28;20016;-84
2022/07/29 00:16:42;;;;;;;9.15;5.82;;;;;;;;;;5064724;28;20533;-85
2022/07/29 00:19:07;;;;;;;7.90;6.03;;;;;;;;;;5062394;28;20021;-80
2022/07/29 00:21:32;;;;;;;6.75;6.05;;;;;;;;;;5065300;28;20032;-84
2022/07/29 00:23:58;;;;;;;8.85;6.53;;;;;;;;;;5062715;28;20029;-84
2022/07/29 00:26:23;;;;;;;7.28;6.22;;;;;;;;;;5061956;28;20024;-85
2022/07/29 00:28:49;;;;;;;7.78;6.32;;;;;;;;;;5060497;28;20079;-85
2022/07/29 00:31:14;;;;;;;7.35;5.82;;;;;;;;;;5058810;28;20472;-83
2022/07/29 00:33:40;;;;;;;7.38;6.68;;;;;;;;;;5056098;28;20039;-84
2022/07/29 00:36:05;;;;;;;7.30;6.50;;;;;;;;;;5056843;28;20032;-84
2022/07/29 00:38:31;;;;;;;7.38;6.10;;;;;;;;;;5060095;28;20036;-84
2022/07/29 00:40:56;;;;;;;9.23;7.10;;;;;;;;;;5058644;28;20024;-84
2022/07/29 00:43:22;;;;;;;8.52;6.68;;;;;;;;;;5054161;28;20033;-84
2022/07/29 00:45:47;;;;;;;8.80;6.22;;;;;;;;;;5063355;28;20021;-84
2022/07/29 00:48:14;;;;;;;9.77;6.60;;;;;;;;;;5056964;28;20021;-85
2022/07/29 00:50:39;;;;;;;9.10;7.00;;;;;;;;;;5075484;28;20032;-85
2022/07/29 00:53:10;;;;;;;8.77;7.53;;;;;;;;;;5062740;28;20028;-82
2022/07/29 00:55:36;;;;;;;14.70;7.43;;;;;;;;;;5057882;28;20077;-82
2022/07/29 00:58:02;;;;;;;8.82;7.90;;;;;;;;;;5080087;28;20100;-83
2022/07/29 01:00:29;;;;;;;8.60;7.45;;;;;;;;;;5079130;28;20034;-84
2022/07/29 01:02:54;;;;;;;8.82;7.57;;;;;;;;;;5064566;28;20575;-83
2022/07/29 01:05:22;;;;;;;9.75;7.80;;;;;;;;;;5058926;28;20103;-84
2022/07/29 01:07:52;;;;;;;8.77;7.40;;;;;;;;;;5059355;28;20532;-82
2022/07/29 01:10:18;;;;;;;;;;;;;;;;;;5054389;28;20028;-84
2022/07/29 01:12:46;;;;;;;10.43;7.93;;;;;;;;;;5077177;28;20356;-83
2022/07/29 01:15:12;;;;;;;8.45;7.53;;;;;;;;;;5075808;28;20036;-83
2022/07/29 01:18:08;;;;;;;10.45;8.05;;;;;;;;;;5060349;28;20064;-85
2022/07/29 01:20:55;;;;;;;10.75;8.30;;;;;;;;;;5062167;28;20536;-85
2022/07/29 01:23:39;;;;;;;10.45;8.52;;;;;;;;;;5062696;28;20123;-84
2022/07/29 01:26:26;;;;;;;10.35;8.55;;;;;;;;;;5060586;28;20390;-84
2022/07/29 01:29:01;;;;;;;9.80;8.20;;;;;;;;;;5054472;28;20557;-84
2022/07/29 01:31:43;;;;;;;10.18;7.93;;;;;;;;;;5065716;28;20475;-85
2022/07/29 01:34:15;;;;;;;10.00;7.95;;;;;;;;;;5074430;28;20070;-85
2022/07/29 01:36:46;;;;;;;9.27;8.25;;;;;;;;;;5060223;28;20178;-85
2022/07/29 01:39:18;;;;;;;10.25;8.57;;;;;;;;;;5059460;28;20020;-84
2022/07/29 01:41:56;;;;;;;10.32;8.18;;;;;;;;;;5061699;28;20036;-85
2022/07/29 01:44:49;;;;;;;11.45;8.65;;;;;;;;;;5077173;28;20460;-84
2022/07/29 01:47:20;;;;;;;8.93;7.80;;;;;;;;;;5058354;28;20020;-84
2022/07/29 01:49:50;;;;;;;9.25;7.43;;;;;;;;;;5059362;28;20016;-84
2022/07/29 01:52:23;;;;;;;11.85;7.45;;;;;;;;;;5056340;28;20032;-83
2022/07/29 01:54:54;;;;;;;9.02;7.25;;;;;;;;;;5064704;28;20028;-84
2022/07/29 01:57:22;;;;;;;9.98;8.30;;;;;;;;;;5058340;28;20029;-84
2022/07/29 01:59:49;;;;;;;11.48;8.10;;;;;;;;;;5064399;28;20070;-83
2022/07/29 02:02:17;;;;;;;8.77;6.95;;;;;;;;;;5058926;28;20068;-84
2022/07/29 02:04:48;;;;;;;10.07;7.50;;;;;;;;;;5062157;28;20521;-83
2022/07/29 02:07:17;;;;;;;9.73;8.18;;;;;;;;;;5056269;28;20064;-84
2022/07/29 02:09:44;;;;;;;9.88;7.60;;;;;;;;;;5064376;28;20024;-84
2022/07/29 02:12:11;;;;;;;8.32;7.50;;;;;;;;;;5057887;28;20132;-84
2022/07/29 02:14:43;;;;;;;8.90;7.40;;;;;;;;;;5055442;28;20025;-84
2022/07/29 02:17:10;;;;;;;9.82;7.63;;;;;;;;;;5059827;28;20039;-85
2022/07/29 02:19:38;;;;;;;10.48;8.80;;;;;;;;;;5064581;28;20078;-83
2022/07/29 02:22:05;;;;;;;10.48;8.50;;;;;;;;;;5058525;28;20024;-84
2022/07/29 02:24:32;;;;;;;9.90;7.05;;;;;;;;;;5058979;28;20025;-84
2022/07/29 02:26:59;;;;;;;10.15;8.15;;;;;;;;;;5063731;28;20084;-84
2022/07/29 02:29:28;;;;;;;9.50;8.10;;;;;;;;;;5060981;28;20108;-84
2022/07/29 02:31:56;;;;;;;10.48;8.35;;;;;;;;;;5058918;28;20126;-85
2022/07/29 02:34:24;;;;;;;9.20;7.80;;;;;;;;;;5054703;28;20025;-82
2022/07/29 02:36:50;;;;;;;8.77;6.60;;;;;;;;;;5060297;28;20058;-85
2022/07/29 02:39:17;;;;;;;8.07;6.63;;;;;;;;;;5060784;28;20037;-84
2022/07/29 02:41:58;;;;;;;9.43;6.80;;;;;;;;;;5060408;28;20384;-83
2022/07/29 02:44:24;;;;;;;7.20;6.47;;;;;;;;;;5057412;28;20035;-84
2022/07/29 02:47:07;;;;;;;8.52;6.78;;;;;;;;;;5060265;28;20408;-84
2022/07/29 02:49:37;;;;;;;7.65;6.18;;;;;;;;;;5061340;28;20068;-84
2022/07/29 02:52:18;;;;;;;9.90;6.55;;;;;;;;;;5054411;28;20028;-85
2022/07/29 02:54:55;;;;;;;8.18;6.55;;;;;;;;;;5053684;28;20021;-85
2022/07/29 02:57:28;;;;;;;7.55;5.63;;;;;;;;;;5057406;28;20032;-84
2022/07/29 02:59:58;;;;;;;8.77;6.63;;;;;;;;;;5058290;28;20430;-84
2022/07/29 03:02:26;;;;;;;10.68;6.90;;;;;;;;;;5058210;28;20040;-83
2022/07/29 03:04:52;;;;;;;11.05;7.35;;;;;;;;;;5059191;28;20032;-82
2022/07/29 03:07:20;;;;;;;8.75;7.43;;;;;;;;;;5069487;28;20039;-84
2022/07/29 03:09:46;;;;;;;8.52;6.57;;;;;;;;;;5064256;28;20358;-83
2022/07/29 03:12:12;;;;;;;8.18;6.82;;;;;;;;;;5062720;28;20025;-84
2022/07/29 03:14:38;;;;;;;9.38;7.70;;;;;;;;;;5065236;28;20052;-83
2022/07/29 03:17:05;;;;;;;8.55;7.00;;;;;;;;;;5064389;28;20020;-85
2022/07/29 03:19:31;;;;;;;10.65;7.53;;;;;;;;;;5063471;28;20045;-85
2022/07/29 03:21:57;;;;;;;9.00;7.70;;;;;;;;;;5064084;28;20029;-83
2022/07/29 03:24:35;;;;;;;9.43;8.27;;;;;;;;;;5058266;28;20031;-83
2022/07/29 03:27:01;;;;;;;8.90;7.97;;;;;;;;;;5062066;28;20020;-84
2022/07/29 03:29:27;;;;;;;9.25;7.70;;;;;;;;;;5063036;28;20033;-85
2022/07/29 03:31:53;;;;;;;9.73;8.50;;;;;;;;;;5060842;28;20020;-84
2022/07/29 03:34:18;;;;;;;11.50;7.72;;;;;;;;;;5063749;28;20120;-84
2022/07/29 03:36:44;;;;;;;9.48;7.82;;;;;;;;;;5062140;28;20028;-84
2022/07/29 03:39:12;;;;;;;9.02;6.85;;;;;;;;;;5066864;28;20082;-84
2022/07/29 03:41:38;;;;;;;7.72;6.40;;;;;;;;;;5081027;28;20074;-84
2022/07/29 03:44:07;;;;;;;10.00;5.05;;;;;;;;;;5062215;28;20036;-84
2022/07/29 03:46:35;;;;;;;6.57;4.78;;;;;;;;;;5059901;28;20028;-83
2022/07/29 03:49:03;;;;;;;10.43;6.05;;;;;;;;;;5057514;28;20369;-84
2022/07/29 03:51:29;;;;;;;6.97;5.43;;;;;;;;;;5062768;28;20028;-85
2022/07/29 03:53:55;;;;;;;7.45;5.57;;;;;;;;;;5061136;28;20031;-84
2022/07/29 03:56:23;;;;;;;6.05;5.43;;;;;;;;;;5062217;28;20484;-83
2022/07/29 03:58:51;;;;;;;7.13;5.45;;;;;;;;;;5059851;28;20444;-84
2022/07/29 04:01:17;;;;;;;5.80;4.78;;;;;;;;;;5060800;28;20028;-84
2022/07/29 04:03:45;;;;;;;7.20;6.32;;;;;;;;;;5062094;28;20121;-84
2022/07/29 04:06:11;;;;;;;6.90;4.55;;;;;;;;;;5065213;28;20032;-84
2022/07/29 04:08:36;;;;;;;5.55;4.45;;;;;;;;;;5057471;28;20028;-84
2022/07/29 04:11:03;;;;;;;7.85;5.30;;;;;;;;;;5056604;28;20021;-84
2022/07/29 04:13:29;;;;;;;6.68;4.75;;;;;;;;;;5061668;28;20029;-84
2022/07/29 04:15:55;;;;;;;8.05;6.05;;;;;;;;;;5054988;28;20078;-83
2022/07/29 04:18:20;;;;;;;8.80;6.53;;;;;;;;;;5075659;28;20456;-83
2022/07/29 04:20:46;;;;;;;8.23;6.90;;;;;;;;;;5049026;28;20025;-84
2022/07/29 04:23:11;;;;;;;8.20;6.57;;;;;;;;;;5061430;28;20028;-85
2022/07/29 04:25:38;;;;;;;8.25;6.85;;;;;;;;;;5057911;28;20029;-85
2022/07/29 04:28:04;;;;;;;7.65;6.50;;;;;;;;;;5074386;28;20029;-84
2022/07/29 04:30:31;;;;;;;10.65;7.13;;;;;;;;;;5076595;28;20091;-84
2022/07/29 04:32:57;;;;;;;9.00;7.32;;;;;;;;;;5060498;28;20025;-83
2022/07/29 04:35:23;;;;;;;7.38;6.47;;;;;;;;;;5068194;28;20103;-84
2022/07/29 04:37:48;;;;;;;8.48;6.60;;;;;;;;;;5055227;28;20032;-84
2022/07/29 04:40:13;;;;;;;8.50;6.55;;;;;;;;;;5061336;28;20036;-84
2022/07/29 04:42:39;;;;;;;9.48;6.05;;;;;;;;;;5063470;28;20052;-85
2022/07/29 04:45:05;;;;;;;8.05;6.22;;;;;;;;;;5057618;28;20035;-85
2022/07/29 04:47:31;;;;;;;8.43;5.65;;;;;;;;;;5061013;28;20041;-84
2022/07/29 04:49:56;;;;;;;8.70;5.47;;;;;;;;;;5059400;28;20027;-84
2022/07/29 04:52:22;;;;;;;5.28;4.78;;;;;;;;;;5058738;28;20029;-84
2022/07/29 04:54:48;;;;;;;8.70;5.00;;;;;;;;;;5053566;28;20036;-83
2022/07/29 04:57:13;;;;;;;7.05;5.22;;;;;;;;;;5077892;28;20469;-84
2022/07/29 04:59:39;;;;;;;7.72;5.75;;;;;;;;;;5059033;28;20524;-83
2022/07/29 05:02:04;;;;;;;8.70;6.85;;;;;;;;;;5054828;28;20777;-83
2022/07/29 05:04:30;;;;;;;9.70;6.90;;;;;;;;;;5065144;28;20060;-82
2022/07/29 05:06:55;;;;;;;7.57;6.80;;;;;;;;;;5060639;28;20059;-82
2022/07/29 05:09:20;;;;;;;11.13;8.68;;;;;;;;;;5064337;28;20112;-83
2022/07/29 05:11:46;;;;;;;8.80;7.68;;;;;;;;;;5057112;28;20380;-83
2022/07/29 05:14:11;;;;;;;14.63;8.68;;;;;;;;;;5060818;28;20020;-82
2022/07/29 05:16:38;;;;;;;8.10;7.28;;;;;;;;;;5065183;28;20078;-83
2022/07/29 05:19:04;;;;;;;10.13;8.23;;;;;;;;;;5058173;28;20021;-83
2022/07/29 05:21:29;;;;;;;11.15;7.68;;;;;;;;;;5061472;28;20032;-84
2022/07/29 05:23:55;;;;;;;10.73;7.10;;;;;;;;;;5052281;28;20028;-84
2022/07/29 05:26:20;;;;;;;10.40;7.65;;;;;;;;;;5056937;28;20021;-84
2022/07/29 05:28:46;;;;;;;10.75;6.90;;;;;;;;;;5059454;28;20029;-81
2022/07/29 05:31:11;;;;;;;8.13;7.10;;;;;;;;;;5053970;28;20028;-83
2022/07/29 05:33:37;;;;;;;31.40;26.27;;;;;;;;;;5060101;28;20035;-84
2022/07/29 05:36:06;;;;;;;13.50;10.32;;;;;;;;;;5056261;28;20058;-84
2022/07/29 05:38:31;;;;;;;10.52;7.45;;;;;;;;;;5054944;28;20024;-83
2022/07/29 05:40:58;;;;;;;11.35;7.70;;;;;;;;;;5055249;28;20447;-84
2022/07/29 05:43:24;;;;;;;9.93;6.43;;;;;;;;;;5053207;28;20053;-83
2022/07/29 05:45:49;;;;;;;8.65;6.30;;;;;;;;;;5093605;28;20427;-83
2022/07/29 05:48:15;;;;;;;7.32;6.40;;;;;;;;;;5066938;28;20447;-86
2022/07/29 05:50:40;;;;;;;7.82;5.82;;;;;;;;;;5057588;28;20427;-84
2022/07/29 05:53:06;;;;;;;10.27;6.60;;;;;;;;;;5055229;28;20029;-87
2022/07/29 05:55:47;;;;;;;12.98;6.47;;;;;;;;;;5061372;28;20043;-84
2022/07/29 05:58:13;;;;;;;11.05;8.07;;;;;;;;;;5055054;28;20036;-83
2022/07/29 06:00:38;;;;;;;8.07;6.88;;;;;;;;;;5068074;28;20035;-85
2022/07/29 06:03:03;;;;;;;11.50;6.70;;;;;;;;;;5052688;28;20380;-86
2022/07/29 06:05:29;;;;;;;12.25;8.85;;;;;;;;;;5055138;28;20052;-84
2022/07/29 06:07:54;;;;;;;8.52;6.40;;;;;;;;;;5053987;28;20025;-84
2022/07/29 06:10:21;;;;;;;7.80;5.78;;;;;;;;;;5051373;28;20401;-85
2022/07/29 06:12:46;;;;;;;6.47;5.75;;;;;;;;;;5049933;28;20021;-84
2022/07/29 06:15:12;;;;;;;6.25;5.22;;;;;;;;;;5048573;28;20023;-84
2022/07/29 06:17:37;;;;;;;9.20;6.50;;;;;;;;;;5053227;28;20083;-85
2022/07/29 06:20:03;;;;;;;9.50;6.18;;;;;;;;;;5054044;28;20460;-84
2022/07/29 06:22:29;;;;;;;7.88;6.03;;;;;;;;;;5059591;28;20029;-82
2022/07/29 06:24:55;;;;;;;10.40;6.10;;;;;;;;;;5043097;28;20021;-84
2022/07/29 06:27:20;;;;;;;19.85;7.00;;;;;;;;;;5047856;28;20107;-86
2022/07/29 06:29:45;;;;;;;9.52;6.70;;;;;;;;;;5052831;28;20061;-84
2022/07/29 06:32:11;;;;;;;7.93;5.70;;;;;;;;;;5053466;28;20029;-83
2022/07/29 06:34:37;;;;;;;6.30;5.47;;;;;;;;;;5056973;28;20051;-85
2022/07/29 06:37:08;;;;;;;11.68;6.22;;;;;;;;;;5054981;28;20024;-86
2022/07/29 06:39:37;;;;;;;13.23;6.43;;;;;;;;;;5061863;28;20029;-91
2022/07/29 06:42:06;;;;;;;9.35;5.55;;;;;;;;;;5084580;28;20025;-87
2022/07/29 06:44:33;;;;;;;6.20;5.37;;;;;;;;;;5064007;28;20033;-88
2022/07/29 06:47:05;;;;;;;7.45;5.80;;;;;;;;;;5078530;28;20272;-87
2022/07/29 06:49:30;;;;;;;7.97;5.82;;;;;;;;;;5057310;28;20059;-86
2022/07/29 06:51:55;;;;;;;12.88;5.72;;;;;;;;;;5057947;28;20097;-83
2022/07/29 06:54:21;;;;;;;9.77;5.85;;;;;;;;;;5049314;28;20400;-84
2022/07/29 06:56:47;;;;;;;7.10;6.00;;;;;;;;;;5058872;28;20031;-82
2022/07/29 06:59:13;;;;;;;7.35;5.30;;;;;;;;;;5055407;28;20025;-84
2022/07/29 07:01:41;;;;;;;7.95;5.28;;;;;;;;;;5059731;28;20031;-84
2022/07/29 07:04:08;;;;;;;6.85;5.55;;;;;;;;;;5053681;28;20183;-84
2022/07/29 07:06:34;;;;;;;6.93;5.72;;;;;;;;;;5056748;28;20112;-84
2022/07/29 07:08:59;;;;;;;7.10;6.18;;;;;;;;;;5058626;28;20521;-84
2022/07/29 07:11:24;;;;;;;6.88;5.60;;;;;;;;;;5046692;28;20063;-84
2022/07/29 07:13:50;;;;;;;6.85;5.78;;;;;;;;;;5066753;28;20490;-84
2022/07/29 07:16:15;;;;;;;10.52;6.68;;;;;;;;;;5051964;28;20055;-84
2022/07/29 07:18:41;;;;;;;6.75;5.65;;;;;;;;;;5049060;28;20056;-84
2022/07/29 07:21:06;;;;;;;6.72;6.03;;;;;;;;;;5056366;28;20029;-85
2022/07/29 07:23:32;;;;;;;6.75;6.05;;;;;;;;;;5056126;28;20044;-84
2022/07/29 07:25:57;;;;;;;7.38;6.00;;;;;;;;;;5048586;28;20047;-84
2022/07/29 07:28:22;;;;;;;6.00;5.38;;;;;;;;;;5047988;28;20021;-84
2022/07/29 07:30:48;;;;;;;7.35;5.07;;;;;;;;;;5054042;28;20028;-84
2022/07/29 07:33:14;;;;;;;6.82;5.45;;;;;;;;;;5054711;28;20138;-85
2022/07/29 07:35:40;;;;;;;5.93;5.20;;;;;;;;;;5056596;28;20040;-85
2022/07/29 07:38:05;;;;;;;7.45;5.18;;;;;;;;;;5060094;28;20106;-85
2022/07/29 07:40:31;;;;;;;5.97;4.70;;;;;;;;;;5058949;28;20055;-85
2022/07/29 07:42:56;;;;;;;5.90;4.43;;;;;;;;;;5062104;28;20364;-83
2022/07/29 07:45:22;;;;;;;5.65;5.05;;;;;;;;;;5065660;28;20028;-83
2022/07/29 07:47:47;;;;;;;7.20;4.88;;;;;;;;;;5056012;28;20066;-84
2022/07/29 07:50:13;;;;;;;6.97;4.13;;;;;;;;;;5063827;28;20104;-83
2022/07/29 07:52:52;;;;;;;5.72;4.40;;;;;;;;;;5059999;28;20032;-83
2022/07/29 07:55:18;;;;;;;6.35;4.90;;;;;;;;;;5059774;28;20112;-83
2022/07/29 07:57:45;;;;;;;4.47;4.05;;;;;;;;;;5064661;28;20032;-82
2022/07/29 08:00:12;;;;;;;6.25;4.78;;;;;;;;;;5051433;28;20142;-83
2022/07/29 08:02:39;;;;;;;5.22;3.85;;;;;;;;;;5058843;28;20051;-82
2022/07/29 08:05:06;;;;;;;5.88;4.32;;;;;;;;;;5054181;28;20377;-83
2022/07/29 08:07:32;;;;;;;5.22;3.92;;;;;;;;;;5054720;28;20036;-83
2022/07/29 08:09:57;;;;;;;6.30;4.90;;;;;;;;;;5051851;28;20029;-84
2022/07/29 08:12:22;;;;;;;5.80;4.38;;;;;;;;;;5057547;28;20021;-83
2022/07/29 08:14:48;;;;;;;5.53;4.18;;;;;;;;;;5053519;28;20032;-83
2022/07/29 08:17:13;;;;;;;7.60;4.45;;;;;;;;;;5058607;28;20119;-84
2022/07/29 08:19:39;;;;;;;10.25;5.20;;;;;;;;;;5056018;28;20124;-85
2022/07/29 08:22:05;;;;;;;5.50;3.90;;;;;;;;;;5055795;28;20528;-84
2022/07/29 08:24:42;;;;;;;5.60;4.50;;;;;;;;;;5053468;28;20051;-84
2022/07/29 08:27:08;;;;;;;10.20;4.43;;;;;;;;;;5056373;28;20036;-83
2022/07/29 08:29:34;;;;;;;4.85;4.00;;;;;;;;;;5047027;28;20030;-82
2022/07/29 08:31:59;;;;;;;4.15;3.70;;;;;;;;;;5051955;28;20115;-83
2022/07/29 08:34:25;;;;;;;7.50;4.10;;;;;;;;;;5051594;28;20021;-82
2022/07/29 08:36:51;;;;;;;4.00;3.60;;;;;;;;;;5064448;28;20539;-85
2022/07/29 08:39:16;;;;;;;4.65;3.78;;;;;;;;;;5071243;28;20024;-85
2022/07/29 08:41:42;;;;;;;3.70;3.35;;;;;;;;;;5079030;28;20032;-84
2022/07/29 08:44:08;;;;;;;6.15;3.90;;;;;;;;;;5059989;28;20496;-86
2022/07/29 08:46:38;;;;;;;4.47;3.50;;;;;;;;;;5069261;28;20043;-87
2022/07/29 08:49:03;;;;;;;4.18;3.53;;;;;;;;;;5064214;28;20475;-87
2022/07/29 08:51:30;;;;;;;5.70;3.97;;;;;;;;;;5068274;28;20107;-87
2022/07/29 08:53:57;;;;;;;4.88;3.63;;;;;;;;;;5060997;28;20460;-87
2022/07/29 08:56:23;;;;;;;8.77;4.07;;;;;;;;;;5066412;28;20021;-84
2022/07/29 08:58:48;;;;;;;4.53;3.92;;;;;;;;;;5078707;28;20028;-85
2022/07/29 09:01:20;;;;;;;4.18;3.63;;;;;;;;;;5058927;28;20035;-85
2022/07/29 09:03:46;;;;;;;12.65;4.35;;;;;;;;;;5063767;28;20048;-86
2022/07/29 09:06:17;;;;;;;7.55;4.50;;;;;;;;;;5065981;28;20099;-85
2022/07/29 09:08:42;;;;;;;6.38;3.88;;;;;;;;;;5061544;28;20020;-86
2022/07/29 09:11:08;;;;;;;4.43;3.65;;;;;;;;;;5064223;28;20033;-85
2022/07/29 09:13:34;;;;;;;7.50;4.45;;;;;;;;;;5075779;28;20094;-85
2022/07/29 09:16:00;;;;;;;6.10;4.15;;;;;;;;;;5060272;28;20027;-83
2022/07/29 09:18:41;;;;;;;5.85;4.07;;;;;;;;;;5076532;28;20033;-84
2022/07/29 09:24:06;;;;;;;4.10;3.70;;;;;;;;;;5056925;28;20093;-84
2022/07/29 09:26:33;;;;;;;5.82;4.00;;;;;;;;;;5059564;28;20520;-84
2022/07/29 09:28:59;;;;;;;5.97;3.60;;;;;;;;;;5076976;28;20028;-84
2022/07/29 09:31:36;;;;;;;5.30;3.88;;;;;;;;;;5064101;28;20036;-85
2022/07/29 09:34:01;;;;;;;5.13;4.00;;;;;;;;;;5059687;28;20487;-83
2022/07/29 09:36:27;;;;;;;4.93;4.00;;;;;;;;;;5077219;28;20024;-83
2022/07/29 09:39:00;;;;;;;4.43;3.90;;;;;;;;;;5052341;28;20437;-84
2022/07/29 09:41:27;;;;;;;6.20;3.90;;;;;;;;;;5067297;28;20045;-84
2022/07/29 09:43:59;;;;;;;9.68;4.90;;;;;;;;;;5046475;28;20060;-85
2022/07/29 09:46:25;;;;;;;5.18;4.68;;;;;;;;;;5060086;28;20160;-83
2022/07/29 09:49:12;;;;;;;4.57;4.18;;;;;;;;;;5046473;28;20021;-83
2022/07/29 09:51:38;;;;;;;7.70;4.53;;;;;;;;;;5046844;28;20029;-84
2022/07/29 09:54:26;;;;;;;5.45;4.40;;;;;;;;;;5050258;28;20366;-83
2022/07/29 09:56:53;;;;;;;7.32;4.45;;;;;;;;;;5048972;28;20083;-85
2022/07/29 09:59:22;;;;;;;5.90;4.90;;;;;;;;;;5044989;28;20108;-84
2022/07/29 10:01:49;;;;;;;7.03;4.43;;;;;;;;;;5074290;28;20052;-85
2022/07/29 10:04:14;;;;;;;5.88;4.50;;;;;;;;;;5055677;28;20400;-85
2022/07/29 10:07:00;;;;;;;5.20;4.70;;;;;;;;;;5056156;28;20020;-87
2022/07/29 10:09:26;;;;;;;5.05;4.55;;;;;;;;;;5074959;28;20024;-85
2022/07/29 10:12:10;;;;;;;5.45;4.10;;;;;;;;;;5056900;28;20024;-87
2022/07/29 10:14:37;;;;;;;6.07;4.47;;;;;;;;;;5053406;28;20553;-83
2022/07/29 10:17:04;;;;;;;6.47;4.47;;;;;;;;;;5057773;28;20028;-84
2022/07/29 10:19:31;;;;;;;5.13;4.53;;;;;;;;;;5047878;28;20025;-83
2022/07/29 10:21:59;;;;;;;6.05;3.90;;;;;;;;;;5055693;28;20073;-82
2022/07/29 10:24:28;;;;;;;7.55;4.55;;;;;;;;;;5062151;28;20123;-83
2022/07/29 10:26:59;;;;;;;6.03;4.55;;;;;;;;;;5056809;28;20108;-85
2022/07/29 10:29:25;;;;;;;5.05;4.55;;;;;;;;;;5055709;28;20124;-84
2022/07/29 10:32:25;;;;;;;5.45;4.40;;;;;;;;;;5055160;28;20025;-82
2022/07/29 10:35:07;;;;;;;6.07;5.45;;;;;;;;;;5052079;28;20032;-82
2022/07/29 10:38:10;;;;;;;6.95;5.43;;;;;;;;;;5049347;28;20029;-83
2022/07/29 10:43:36;;;;;;;6.55;5.95;;;;;;;;;;5052234;28;20491;-82
2022/07/29 10:46:02;;;;;;;5.65;5.00;;;;;;;;;;5054499;28;20029;-82
2022/07/29 10:48:29;;;;;;;6.28;4.85;;;;;;;;;;5054208;28;20463;-85
2022/07/29 10:50:55;;;;;;;15.23;7.00;;;;;;;;;;5057132;28;20546;-87
2022/07/29 10:53:23;;;;;;;4.90;4.40;;;;;;;;;;5060553;28;20021;-82
2022/07/29 10:55:51;;;;;;;5.80;5.20;;;;;;;;;;5054450;28;20599;-83
2022/07/29 10:58:23;;;;;;;6.55;4.75;;;;;;;;;;5047330;28;20029;-82
2022/07/29 11:00:50;;;;;;;6.35;5.75;;;;;;;;;;5048739;28;20025;-80
2022/07/29 11:03:40;;;;;;;6.00;5.05;;;;;;;;;;5055130;28;20041;-82
2022/07/29 11:06:06;;;;;;;6.07;4.70;;;;;;;;;;5048305;28;20075;-81
2022/07/29 11:08:32;;;;;;;4.40;4.00;;;;;;;;;;5054700;28;20029;-82
2022/07/29 11:11:19;;;;;;;4.07;3.65;;;;;;;;;;5050792;28;20025;-82
2022/07/29 11:13:49;;;;;;;6.15;4.78;;;;;;;;;;5049382;28;20032;-84
2022/07/29 11:16:15;;;;;;;7.53;5.65;;;;;;;;;;5052598;28;20028;-84
2022/07/29 11:19:12;;;;;;;6.57;5.32;;;;;;;;;;5052202;28;20040;-82
2022/07/29 11:21:49;;;;;;;8.80;5.57;;;;;;;;;;5049795;28;20028;-82
2022/07/29 11:24:17;;;;;;;4.70;3.92;;;;;;;;;;5058490;28;20457;-83
2022/07/29 11:26:43;;;;;;;4.82;3.80;;;;;;;;;;5060807;28;20052;-83
2022/07/29 11:29:24;;;;;;;4.95;4.50;;;;;;;;;;5057598;28;20052;-82
2022/07/29 11:31:55;;;;;;;5.90;5.25;;;;;;;;;;5062066;28;20104;-83
2022/07/29 11:34:29;;;;;;;5.25;4.60;;;;;;;;;;5065140;28;20607;-82
2022/07/29 11:37:10;;;;;;;5.32;4.80;;;;;;;;;;5061360;28;20086;-84
2022/07/29 11:39:56;;;;;;;7.18;5.80;;;;;;;;;;5062775;28;20029;-84
2022/07/29 11:42:24;;;;;;;5.57;4.80;;;;;;;;;;5063989;28;20534;-82
2022/07/29 11:45:06;;;;;;;23.25;6.43;;;;;;;;;;5061044;28;20110;-81
2022/07/29 11:47:50;;;;;;;30.15;7.53;;;;;;;;;;5053494;28;20025;-83
2022/07/29 11:50:26;;;;;;;20.90;6.68;;;;;;;;;;5060463;28;20837;-82
2022/07/29 11:52:52;;;;;;;13.38;6.40;;;;;;;;;;5062348;28;20036;-82
2022/07/29 11:55:19;;;;;;;23.15;6.82;;;;;;;;;;5063863;28;20128;-81
2022/07/29 11:57:56;;;;;;;5.50;3.83;;;;;;;;;;5053169;28;20024;-82
2022/07/29 12:00:32;;;;;;;10.88;4.00;;;;;;;;;;5053857;28;20036;-84
2022/07/29 12:03:01;;;;;;;4.63;4.22;;;;;;;;;;5068031;28;20099;-80
2022/07/29 12:05:37;;;;;;;9.43;5.75;;;;;;;;;;5062405;28;20393;-85
2022/07/29 12:08:18;;;;;;;6.57;5.03;;;;;;;;;;5057430;28;20036;-81
2022/07/29 12:10:43;;;;;;;6.05;5.10;;;;;;;;;;5054622;28;20035;-82
2022/07/29 12:13:10;;;;;;;9.25;6.68;;;;;;;;;;5065408;28;20460;-83
2022/07/29 12:15:36;;;;;;;8.20;4.32;;;;;;;;;;5059225;28;20481;-82
2022/07/29 12:18:16;;;;;;;5.13;4.63;;;;;;;;;;5060104;28;20768;-83
2022/07/29 12:20:42;;;;;;;5.07;4.53;;;;;;;;;;5061700;28;20025;-83
2022/07/29 12:23:08;;;;;;;7.60;6.80;;;;;;;;;;5062066;28;20103;-82
2022/07/29 12:25:36;;;;;;;6.85;4.95;;;;;;;;;;5054162;28;20057;-84
2022/07/29 12:28:08;;;;;;;6.95;6.25;;;;;;;;;;5054700;28;20041;-83
2022/07/29 12:30:42;;;;;;;4.47;4.07;;;;;;;;;;5059439;28;20078;-83
2022/07/29 12:33:12;;;;;;;8.48;6.18;;;;;;;;;;5051782;28;20017;-83
2022/07/29 12:35:38;;;;;;;6.10;4.20;;;;;;;;;;5058721;28;20031;-83
2022/07/29 12:38:04;;;;;;;5.13;4.57;;;;;;;;;;5057605;28;20024;-84
2022/07/29 12:40:30;;;;;;;6.60;4.60;;;;;;;;;;5058514;28;20116;-84
2022/07/29 12:43:14;;;;;;;5.40;4.85;;;;;;;;;;5055674;28;20052;-84
2022/07/29 12:45:45;;;;;;;7.28;5.10;;;;;;;;;;5064714;28;20039;-84
2022/07/29 12:48:11;;;;;;;5.13;4.50;;;;;;;;;;5060157;28;20028;-81
2022/07/29 12:50:55;;;;;;;7.15;5.25;;;;;;;;;;5052123;28;20503;-82
2022/07/29 12:53:21;;;;;;;12.57;5.03;;;;;;;;;;5058445;28;20057;-85
2022/07/29 12:55:48;;;;;;;5.07;4.07;;;;;;;;;;5051550;28;20346;-81
2022/07/29 12:58:38;;;;;;;4.70;3.80;;;;;;;;;;5048294;28;20029;-82
2022/07/29 13:01:11;;;;;;;5.93;4.22;;;;;;;;;;5047506;28;20021;-84
2022/07/29 13:03:42;;;;;;;4.22;3.83;;;;;;;;;;5058840;28;20041;-84
2022/07/29 13:06:30;;;;;;;3.85;3.55;;;;;;;;;;5062454;28;20033;-84
2022/07/29 13:09:04;;;;;;;21.73;5.97;;;;;;;;;;5055640;28;20045;-83
2022/07/29 13:11:35;;;;;;;5.32;4.07;;;;;;;;;;5057666;28;20029;-83
2022/07/29 13:14:00;;;;;;;5.07;4.15;;;;;;;;;;5044798;28;20048;-83
2022/07/29 13:16:26;;;;;;;4.15;3.65;;;;;;;;;;5047046;28;20421;-82
2022/07/29 13:19:06;;;;;;;8.88;4.57;;;;;;;;;;5052408;28;20123;-82
2022/07/29 13:21:31;;;;;;;6.13;4.53;;;;;;;;;;5056958;28;20393;-83
2022/07/29 13:23:56;;;;;;;12.45;4.60;;;;;;;;;;5050893;28;20029;-83
2022/07/29 13:26:22;;;;;;;6.68;4.28;;;;;;;;;;5054865;28;20469;-84
2022/07/29 13:28:47;;;;;;;7.07;4.00;;;;;;;;;;5056169;28;20051;-83
2022/07/29 13:31:13;;;;;;;6.40;3.65;;;;;;;;;;5052730;28;20492;-85
2022/07/29 13:33:41;;;;;;;4.40;3.55;;;;;;;;;;5060671;28;20060;-84
2022/07/29 13:36:06;;;;;;;5.97;4.05;;;;;;;;;;5048738;28;20398;-83
2022/07/29 13:38:32;;;;;;;7.57;3.17;;;;;;;;;;5054300;28;20075;-82
2022/07/29 13:40:58;;;;;;;4.00;3.47;;;;;;;;;;5058902;28;20032;-83
2022/07/29 13:43:23;;;;;;;4.05;3.47;;;;;;;;;;5050009;28;20029;-83
2022/07/29 13:45:49;;;;;;;5.53;3.55;;;;;;;;;;5048734;28;20681;-82
2022/07/29 13:48:14;;;;;;;3.85;3.55;;;;;;;;;;5041864;28;20029;-81
2022/07/29 13:50:40;;;;;;;5.43;3.40;;;;;;;;;;5043353;28;20051;-83
2022/07/29 13:53:05;;;;;;;4.72;3.90;;;;;;;;;;5042162;28;20028;-83
2022/07/29 13:55:30;;;;;;;5.25;3.90;;;;;;;;;;5045538;28;20032;-82
2022/07/29 13:57:56;;;;;;;4.40;4.00;;;;;;;;;;5042737;28;20029;-80
2022/07/29 14:00:23;;;;;;;4.68;3.47;;;;;;;;;;5051442;28;20083;-82
2022/07/29 14:02:48;;;;;;;8.25;4.07;;;;;;;;;;5048821;28;20120;-81
2022/07/29 14:05:14;;;;;;;5.50;3.72;;;;;;;;;;5051096;28;20065;-81
2022/07/29 14:07:39;;;;;;;5.93;4.43;;;;;;;;;;5042394;28;20465;-81
2022/07/29 14:10:06;;;;;;;5.15;4.25;;;;;;;;;;5044057;28;20020;-82
2022/07/29 14:12:31;;;;;;;5.20;4.07;;;;;;;;;;5043276;28;20032;-82
2022/07/29 14:14:56;;;;;;;4.93;4.40;;;;;;;;;;5046742;28;20037;-83
2022/07/29 14:17:22;;;;;;;4.88;4.47;;;;;;;;;;5044593;28;20477;-82
2022/07/29 14:19:48;;;;;;;4.95;4.28;;;;;;;;;;5065065;28;20496;-81
2022/07/29 14:22:14;;;;;;;5.75;4.93;;;;;;;;;;5048931;28;20032;-83
2022/07/29 14:24:39;;;;;;;5.13;4.30;;;;;;;;;;5042967;28;20021;-82
2022/07/29 14:27:06;;;;;;;6.00;4.75;;;;;;;;;;5053010;28;20035;-82
2022/07/29 14:29:32;;;;;;;5.22;4.72;;;;;;;;;;5052962;28;20044;-83
2022/07/29 14:31:58;;;;;;;5.57;4.43;;;;;;;;;;5055630;28;20021;-82
2022/07/29 14:34:23;;;;;;;6.88;4.35;;;;;;;;;;5065807;28;20040;-81
2022/07/29 14:36:49;;;;;;;4.60;4.20;;;;;;;;;;5047406;28;20032;-81
2022/07/29 14:39:15;;;;;;;4.93;4.38;;;;;;;;;;5055035;28;20048;-82
2022/07/29 14:41:41;;;;;;;4.30;3.90;;;;;;;;;;5053851;28;20560;-82
2022/07/29 14:44:06;;;;;;;5.57;4.50;;;;;;;;;;5060709;28;20104;-83
2022/07/29 14:46:32;;;;;;;5.55;4.00;;;;;;;;;;5062522;28;20025;-82
2022/07/29 14:48:57;;;;;;;7.50;4.32;;;;;;;;;;5074639;28;20029;-83
2022/07/29 14:51:22;;;;;;;4.60;4.20;;;;;;;;;;5052706;28;20025;-82
2022/07/29 14:53:48;;;;;;;5.20;4.68;;;;;;;;;;5050265;28;20029;-82
2022/07/29 14:56:13;;;;;;;4.68;4.25;;;;;;;;;;5053059;28;20028;-82